createdAt,value
2023-01-18T00:00:28.390Z,100.00
2023-01-18T00:04:31.220Z,100.00
2023-01-18T00:08:36.106Z,100.00
2023-01-18T00:12:39.055Z,100.00
2023-01-18T00:16:44.335Z,100.00
2023-01-18T00:20:47.153Z,100.00
2023-01-18T00:24:50.140Z,100.00
2023-01-18T00:28:53.548Z,100.00
2023-01-18T00:33:00.153Z,100.00
2023-01-18T00:37:03.454Z,100.00
2023-01-18T00:41:06.435Z,100.00
2023-01-18T00:45:11.436Z,100.00
2023-01-18T00:49:21.514Z,100.00
2023-01-18T00:53:24.806Z,100.00
2023-01-18T00:57:29.299Z,100.00
2023-01-18T01:01:32.403Z,100.00
2023-01-18T01:05:56.908Z,100.00
2023-01-18T01:10:00.029Z,100.00
2023-01-18T01:14:20.343Z,100.00
2023-01-18T01:18:41.038Z,100.00
2023-01-18T01:23:02.815Z,100.00
2023-01-18T01:27:05.757Z,100.00
2023-01-18T01:31:10.326Z,100.00
2023-01-18T01:35:13.215Z,100.00
2023-01-18T01:39:17.753Z,100.00
2023-01-18T01:43:42.555Z,100.00
2023-01-18T01:48:00.591Z,100.00
2023-01-18T01:52:07.127Z,100.00
2023-01-18T01:56:12.501Z,100.00
2023-01-18T02:00:19.435Z,100.00
2023-01-18T02:04:22.488Z,100.00
2023-01-18T02:08:27.112Z,100.00
2023-01-18T02:12:31.966Z,100.00
2023-01-18T02:16:52.588Z,100.00
2023-01-18T02:21:16.253Z,100.00
2023-01-18T02:25:42.536Z,100.00
2023-01-18T02:30:01.981Z,100.00
2023-01-18T02:34:23.760Z,100.00
2023-01-18T02:38:44.270Z,100.00
2023-01-18T02:43:07.558Z,100.00
2023-01-18T02:47:11.803Z,100.00
2023-01-18T02:51:14.622Z,100.00
2023-01-18T02:55:25.351Z,100.00
2023-01-18T02:59:32.425Z,100.00
2023-01-18T03:03:37.172Z,100.00
2023-01-18T03:07:46.946Z,100.00
2023-01-18T03:11:58.841Z,100.00
2023-01-18T03:16:07.367Z,100.00
2023-01-18T03:20:16.467Z,100.00
2023-01-18T03:24:21.203Z,100.00
2023-01-18T03:28:46.988Z,100.00
2023-01-18T03:33:09.401Z,100.00
2023-01-18T03:37:17.762Z,100.00
2023-01-18T03:41:22.417Z,100.00
2023-01-18T03:45:31.448Z,100.00
2023-01-18T03:49:36.168Z,100.00
2023-01-18T03:53:45.886Z,100.00
2023-01-18T03:57:54.107Z,100.00
2023-01-18T04:01:57.341Z,100.00
2023-01-18T04:06:01.499Z,100.00
2023-01-18T04:10:06.730Z,100.00
2023-01-18T04:14:09.707Z,100.00
2023-01-18T04:18:12.824Z,100.00
2023-01-18T04:22:15.824Z,100.00
2023-01-18T04:26:21.289Z,100.00
2023-01-18T04:30:24.450Z,100.00
2023-01-18T04:34:28.273Z,100.00
2023-01-18T04:38:31.352Z,100.00
2023-01-18T04:42:35.696Z,100.00
2023-01-18T04:46:39.075Z,100.00
2023-01-18T04:50:45.464Z,100.00
2023-01-18T04:54:48.656Z,100.00
2023-01-18T04:58:55.444Z,100.00
2023-01-18T05:02:58.595Z,100.00
2023-01-18T05:07:02.554Z,100.00
2023-01-18T05:11:07.217Z,100.00
2023-01-18T05:15:12.984Z,100.00
2023-01-18T05:19:15.920Z,100.00
2023-01-18T05:23:19.254Z,100.00
2023-01-18T05:27:22.368Z,100.00
2023-01-18T05:31:27.317Z,100.00
2023-01-18T05:35:30.191Z,100.00
2023-01-18T05:39:33.262Z,100.00
2023-01-18T05:43:36.241Z,100.00
2023-01-18T05:47:41.154Z,100.00
2023-01-18T05:51:44.033Z,100.00
2023-01-18T05:55:55.214Z,100.00
2023-01-18T05:59:58.457Z,100.00
2023-01-18T06:04:03.608Z,100.00
2023-01-18T06:08:06.958Z,100.00
2023-01-18T06:12:10.096Z,100.00
2023-01-18T06:16:13.547Z,100.00
2023-01-18T06:20:18.773Z,100.00
2023-01-18T06:24:21.809Z,100.00
2023-01-18T06:28:25.083Z,100.00
2023-01-18T06:32:28.136Z,100.00
2023-01-18T06:36:32.920Z,100.00
2023-01-18T06:40:36.005Z,100.00
2023-01-18T06:44:38.871Z,100.00
2023-01-18T06:48:41.634Z,100.00
2023-01-18T06:52:46.953Z,100.00
2023-01-18T06:56:50.985Z,100.00
2023-01-18T07:00:58.315Z,100.00
2023-01-18T07:05:01.557Z,100.00
2023-01-18T07:09:08.082Z,100.00
2023-01-18T07:13:10.973Z,100.00
2023-01-18T07:17:14.217Z,100.00
2023-01-18T07:21:19.191Z,100.00
2023-01-18T07:25:23.485Z,100.00
2023-01-18T07:29:26.328Z,100.00
2023-01-18T07:33:29.992Z,100.00
2023-01-18T07:37:34.617Z,100.00
2023-01-18T07:41:39.227Z,100.00
2023-01-18T07:45:42.498Z,100.00
2023-01-18T07:49:45.266Z,100.00
2023-01-18T07:53:48.985Z,100.00
2023-01-18T07:57:53.235Z,100.00
2023-01-18T08:01:56.508Z,100.00
2023-01-18T08:06:00.569Z,100.00
2023-01-18T08:10:03.813Z,100.00
2023-01-18T08:14:08.086Z,100.00
2023-01-18T08:18:11.778Z,100.00
2023-01-18T08:22:14.779Z,100.00
2023-01-18T08:26:17.808Z,100.00
2023-01-18T08:30:23.559Z,100.00
2023-01-18T08:34:26.863Z,100.00
2023-01-18T08:38:29.820Z,100.00
2023-01-18T08:42:32.835Z,100.00
2023-01-18T08:46:37.433Z,100.00
2023-01-18T08:50:40.371Z,100.00
2023-01-18T08:54:43.348Z,100.00
2023-01-18T08:58:47.306Z,100.00
2023-01-18T09:02:52.187Z,100.00
2023-01-18T09:06:55.386Z,100.00
2023-01-18T09:11:03.219Z,100.00
2023-01-18T09:15:07.205Z,100.00
2023-01-18T09:19:11.632Z,100.00
2023-01-18T09:23:14.440Z,100.00
2023-01-18T09:27:17.642Z,100.00
2023-01-18T09:31:21.394Z,100.00
2023-01-18T09:35:26.239Z,100.00
2023-01-18T09:39:33.411Z,100.00
2023-01-18T09:43:49.305Z,100.00
2023-01-18T09:47:58.530Z,100.00
2023-01-18T09:52:19.666Z,100.00
2023-01-18T09:56:27.762Z,100.00
2023-01-18T10:00:33.126Z,100.00
2023-01-18T10:04:40.528Z,100.00
2023-01-18T10:08:53.829Z,100.00
2023-01-18T10:13:10.068Z,100.00
2023-01-18T10:17:17.925Z,100.00
2023-01-18T10:21:35.421Z,100.00
2023-01-18T10:25:43.314Z,100.00
2023-01-18T10:30:02.701Z,100.00
2023-01-18T10:34:17.297Z,100.00
2023-01-18T10:38:22.957Z,100.00
2023-01-18T10:42:33.605Z,100.00
2023-01-18T10:46:36.759Z,100.00
2023-01-18T10:50:42.239Z,100.00
2023-01-18T10:54:51.977Z,100.00
2023-01-18T10:58:59.334Z,100.00
2023-01-18T11:03:03.856Z,100.00
2023-01-18T11:07:07.051Z,100.00
2023-01-18T11:11:18.248Z,100.00
2023-01-18T11:15:29.223Z,100.00
2023-01-18T11:19:32.553Z,100.00
2023-01-18T11:23:37.116Z,100.00
2023-01-18T11:27:43.180Z,100.00
2023-01-18T11:31:49.994Z,100.00
2023-01-18T11:35:57.385Z,100.00
2023-01-18T11:40:01.065Z,100.00
2023-01-18T11:44:12.870Z,100.00
2023-01-18T11:48:29.925Z,100.00
2023-01-18T11:52:43.412Z,100.00
2023-01-18T11:56:50.533Z,100.00
2023-01-18T12:01:03.616Z,100.00
2023-01-18T12:05:32.610Z,100.00
2023-01-18T12:09:46.167Z,100.00
2023-01-18T12:14:00.378Z,100.00
2023-01-18T12:18:20.250Z,99.89
2023-01-18T12:22:58.779Z,100.00
2023-01-18T12:27:06.589Z,99.95
2023-01-18T12:31:21.603Z,99.45
2023-01-18T12:35:39.868Z,98.97
2023-01-18T12:40:08.727Z,99.09
2023-01-18T12:44:34.423Z,98.69
2023-01-18T12:48:48.241Z,98.16
2023-01-18T12:52:55.634Z,97.66
2023-01-18T12:57:04.097Z,98.30
2023-01-18T13:01:12.160Z,98.06
2023-01-18T13:05:23.113Z,98.51
2023-01-18T13:09:33.397Z,98.29
2023-01-18T13:13:40.257Z,98.45
2023-01-18T13:17:50.974Z,98.11
2023-01-18T13:22:04.705Z,98.75
2023-01-18T13:26:22.278Z,97.76
2023-01-18T13:30:27.636Z,98.18
2023-01-18T13:34:34.437Z,98.13
2023-01-18T13:38:41.872Z,98.78
2023-01-18T13:42:45.683Z,98.80
2023-01-18T13:46:49.998Z,96.80
2023-01-18T13:50:54.428Z,98.09
2023-01-18T13:55:04.079Z,97.30
2023-01-18T13:59:23.209Z,97.20
2023-01-18T14:03:31.878Z,96.90
2023-01-18T14:07:44.813Z,96.76
2023-01-18T14:11:54.143Z,95.24
2023-01-18T14:16:00.069Z,96.96
2023-01-18T14:20:36.609Z,97.25
2023-01-18T14:24:55.442Z,96.15
2023-01-18T14:29:01.832Z,96.78
2023-01-18T14:33:13.356Z,97.73
2023-01-18T14:37:28.703Z,97.57
2023-01-18T14:41:34.304Z,96.67
2023-01-18T14:45:40.644Z,98.12
2023-01-18T14:49:45.000Z,98.00
2023-01-18T14:53:52.794Z,98.05
2023-01-18T14:58:11.175Z,98.76
2023-01-18T15:02:18.742Z,98.81
2023-01-18T15:06:35.281Z,99.56
2023-01-18T15:10:39.170Z,99.25
2023-01-18T15:14:46.099Z,98.91
2023-01-18T15:18:56.540Z,99.60
2023-01-18T15:23:00.252Z,100.00
2023-01-18T15:27:04.274Z,99.52
2023-01-18T15:31:14.456Z,100.00
2023-01-18T15:35:18.609Z,100.00
2023-01-18T15:39:21.753Z,100.00
2023-01-18T15:43:31.381Z,100.00
2023-01-18T15:47:37.574Z,100.00
2023-01-18T15:51:57.325Z,100.00
2023-01-18T15:56:03.344Z,100.00
2023-01-18T16:00:08.413Z,100.00
2023-01-18T16:04:24.339Z,100.00
2023-01-18T16:08:28.839Z,100.00
2023-01-18T16:12:41.029Z,100.00
2023-01-18T16:16:49.914Z,100.00
2023-01-18T16:21:11.782Z,100.00
2023-01-18T16:25:20.883Z,99.94
2023-01-18T16:29:24.116Z,100.00
2023-01-18T16:33:27.609Z,100.00
2023-01-18T16:37:32.303Z,100.00
2023-01-18T16:41:35.509Z,100.00
2023-01-18T16:45:39.389Z,100.00
2023-01-18T16:49:44.025Z,100.00
2023-01-18T16:53:49.432Z,100.00
2023-01-18T16:57:54.137Z,100.00
2023-01-18T17:01:57.919Z,100.00
2023-01-18T17:06:01.489Z,100.00
2023-01-18T17:10:19.295Z,100.00
2023-01-18T17:14:23.492Z,100.00
2023-01-18T17:18:28.403Z,100.00
2023-01-18T17:22:32.124Z,100.00
2023-01-18T17:26:37.117Z,100.00
2023-01-18T17:30:41.075Z,100.00
2023-01-18T17:34:43.930Z,100.00
2023-01-18T17:38:48.716Z,100.00
2023-01-18T17:43:00.248Z,100.00
2023-01-18T17:47:03.983Z,100.00
2023-01-18T17:51:08.135Z,100.00
2023-01-18T17:55:15.160Z,100.00
2023-01-18T17:59:21.113Z,100.00
2023-01-18T18:03:24.902Z,100.00
2023-01-18T18:07:28.293Z,100.00
2023-01-18T18:11:32.416Z,100.00
2023-01-18T18:15:37.410Z,100.00
2023-01-18T18:19:41.134Z,100.00
2023-01-18T18:23:46.533Z,100.00
2023-01-18T18:27:49.890Z,100.00
2023-01-18T18:31:54.581Z,100.00
2023-01-18T18:35:58.847Z,100.00
2023-01-18T18:40:01.601Z,100.00
2023-01-18T18:44:05.221Z,100.00
2023-01-18T18:48:10.611Z,100.00
2023-01-18T18:52:14.009Z,100.00
2023-01-18T18:56:17.008Z,100.00
2023-01-18T19:00:22.016Z,100.00
2023-01-18T19:04:27.348Z,100.00
2023-01-18T19:08:30.965Z,100.00
2023-01-18T19:12:33.913Z,100.00
2023-01-18T19:16:38.314Z,100.00
2023-01-18T19:20:43.339Z,100.00
2023-01-18T19:24:47.194Z,100.00
2023-01-18T19:28:50.163Z,100.00
2023-01-18T19:32:54.148Z,100.00
2023-01-18T19:37:01.309Z,100.00
2023-01-18T19:41:04.385Z,100.00
2023-01-18T19:45:27.268Z,100.00
2023-01-18T19:49:30.891Z,100.00
2023-01-18T19:53:36.519Z,100.00
2023-01-18T19:57:39.487Z,100.00
2023-01-18T20:01:42.805Z,100.00
2023-01-18T20:05:46.949Z,100.00
2023-01-18T20:09:51.337Z,100.00
2023-01-18T20:13:55.498Z,100.00
2023-01-18T20:17:59.015Z,100.00
2023-01-18T20:22:01.985Z,100.00
2023-01-18T20:26:07.255Z,100.00
2023-01-18T20:30:12.144Z,100.00
2023-01-18T20:34:15.252Z,100.00
2023-01-18T20:38:18.293Z,100.00
2023-01-18T20:42:34.640Z,100.00
2023-01-18T20:46:37.796Z,100.00
2023-01-18T20:50:41.859Z,100.00
2023-01-18T20:54:45.676Z,100.00
2023-01-18T20:58:50.023Z,100.00
2023-01-18T21:02:52.881Z,100.00
2023-01-18T21:06:57.133Z,100.00
2023-01-18T21:11:00.787Z,100.00
2023-01-18T21:15:07.429Z,100.00
2023-01-18T21:19:11.069Z,100.00
2023-01-18T21:23:16.032Z,100.00
2023-01-18T21:27:26.496Z,100.00
2023-01-18T21:31:32.218Z,100.00
2023-01-18T21:35:36.165Z,100.00
2023-01-18T21:39:39.159Z,100.00
2023-01-18T21:43:59.880Z,100.00
2023-01-18T21:48:08.190Z,100.00
2023-01-18T21:52:29.364Z,100.00
2023-01-18T21:56:32.339Z,100.00
2023-01-18T22:00:37.728Z,100.00
2023-01-18T22:04:57.553Z,100.00
2023-01-18T22:09:00.687Z,100.00
2023-01-18T22:13:04.260Z,100.00
2023-01-18T22:17:07.446Z,100.00
2023-01-18T22:21:11.975Z,100.00
2023-01-18T22:25:16.554Z,100.00
2023-01-18T22:29:19.629Z,100.00
2023-01-18T22:33:22.610Z,100.00
2023-01-18T22:37:27.684Z,100.00
2023-01-18T22:41:30.999Z,100.00
2023-01-18T22:45:34.652Z,100.00
2023-01-18T22:49:37.412Z,100.00
2023-01-18T22:53:42.350Z,100.00
2023-01-18T22:57:45.156Z,100.00
2023-01-18T23:01:48.485Z,100.00
2023-01-18T23:05:55.757Z,100.00
2023-01-18T23:10:00.197Z,100.00
2023-01-18T23:14:20.945Z,100.00
2023-01-18T23:18:23.844Z,100.00
2023-01-18T23:22:27.373Z,100.00
2023-01-18T23:26:32.686Z,100.00
2023-01-18T23:30:35.587Z,100.00
2023-01-18T23:34:38.984Z,100.00
2023-01-18T23:38:59.609Z,100.00
2023-01-18T23:43:21.491Z,100.00
2023-01-18T23:47:41.891Z,100.00
2023-01-18T23:52:02.730Z,100.00
2023-01-18T23:56:05.979Z,100.00
